Time;durP1;ratioP1;P1;durP2;ratioP2;P2;SDS_P1;SDS_P2;PMS_P1;PMS_P2;Temp;Humidity;BMP_temperature;BMP_pressure;BME280_temperature;BME280_humidity;BME280_pressure;Samples;Min_cycle;Max_cycle;Signal;HPM_P1;HPM_P2
2022/03/11 02:21:40;;;;;;;;;;;;;;;2.35;48.72;98515.31;5087941;28;20040;-92
2022/03/11 02:32:00;;;;;;;;;;;;;;;2.19;47.87;98515.31;5093209;28;20025;-93
2022/03/11 02:34:32;;;;;;;;;;;;;;;2.03;48.01;98523.06;5072360;28;20019;-89
2022/03/11 02:37:00;;;;;;;;;;;;;;;1.88;47.78;98512.06;5090048;28;19998;-93
2022/03/11 02:42:50;;;;;;;;;;;;;;;1.96;48.70;98511.66;5087909;28;20259;-93
2022/03/11 03:20:39;;;;;;;;;;;;;;;1.51;44.36;98482.19;5087212;28;19934;-92
2022/03/11 03:23:12;;;;;;;;;;;;;;;1.48;44.91;98478.09;5066504;28;19924;-90
2022/03/11 03:29:59;;;;;;;;;;;;;;;1.51;43.91;98477.63;5082361;28;20332;-92
2022/03/11 04:02:46;;;;;;;;;;;;;;;0.86;42.56;98461.88;5089350;28;19920;-92
2022/03/11 04:05:50;;;;;;;;;;;;;;;0.79;43.35;98455.81;5089486;28;20015;-89
2022/03/11 04:08:39;;;;;;;;;;;;;;;0.93;44.02;98465.22;5047357;28;19978;-92
2022/03/11 04:11:29;;;;;;;;;;;;;;;1.06;41.40;98464.13;5093134;28;19924;-90
2022/03/11 04:14:15;;;;;;;;;;;;;;;1.07;42.78;98464.97;5091164;28;19970;-92
2022/03/11 04:17:29;;;;;;;;;;;;;;;1.01;41.63;98464.88;5091199;28;19972;-90
2022/03/11 05:45:14;;;;;;;;;;;;;;;0.59;42.40;98458.88;5079825;28;19929;-81
2022/03/11 05:47:42;;;;;;;;;;;;;;;0.43;41.96;98451.56;5070227;28;20030;-82
2022/03/11 05:53:07;;;;;;;;;;;;;;;0.56;42.01;98447.81;5070797;28;20358;-82
2022/03/11 05:55:35;;;;;;;;;;;;;;;0.12;42.34;98455.38;5067943;28;19999;-80
2022/03/11 05:58:03;;;;;;;;;;;;;;;0.19;42.76;98464.06;5065650;28;19972;-77
2022/03/11 06:00:32;;;;;;;;;;;;;;;0.29;42.38;98464.31;5067626;28;20019;-79
2022/03/11 06:03:00;;;;;;;;;;;;;;;0.40;42.15;98471.53;5072114;28;19923;-79
2022/03/11 06:05:28;;;;;;;;;;;;;;;0.59;42.04;98466.09;5073316;28;19978;-79
2022/03/11 06:07:56;;;;;;;;;;;;;;;0.52;42.56;98469.66;5068988;28;20365;-81
2022/03/11 06:10:24;;;;;;;;;;;;;;;0.49;41.66;98477.34;5063442;28;20424;-80
2022/03/11 06:12:55;;;;;;;;;;;;;;;0.60;41.87;98479.22;5074154;28;19932;-84
2022/03/11 06:15:25;;;;;;;;;;;;;;;0.52;41.73;98477.69;5075579;28;19924;-89
2022/03/11 06:17:57;;;;;;;;;;;;;;;0.63;42.14;98480.59;5069765;28;19928;-81
2022/03/11 06:20:29;;;;;;;;;;;;;;;0.74;41.25;98479.78;5070700;28;19928;-79
2022/03/11 06:26:08;;;;;;;;;;;;;;;0.77;40.97;98476.66;5072215;28;19935;-80
2022/03/11 06:32:17;;;;;;;;;;;;;;;0.73;41.39;98481.63;5052985;28;20298;-80
2022/03/11 06:34:48;;;;;;;;;;;;;;;0.67;41.20;98484.44;5071042;28;20391;-80
2022/03/11 06:37:23;;;;;;;;;;;;;;;0.61;41.36;98480.03;5060541;28;19928;-80
2022/03/11 06:39:51;;;;;;;;;;;;;;;0.62;40.61;98482.47;5049876;28;20724;-81
2022/03/11 06:46:30;;;;;;;;;;;;;;;0.23;41.50;98482.09;5064090;28;19935;-80
2022/03/11 06:48:57;;;;;;;;;;;;;;;0.32;41.50;98489.75;5069273;28;19924;-79
2022/03/11 06:51:27;;;;;;;;;;;;;;;0.24;41.12;98485.56;5068919;28;19935;-82
2022/03/11 06:53:59;;;;;;;;;;;;;;;0.53;40.83;98478.50;5070101;28;20371;-80
2022/03/11 06:56:28;;;;;;;;;;;;;;;0.69;41.21;98485.00;5069265;28;19925;-79
2022/03/11 06:58:57;;;;;;;;;;;;;;;0.79;40.50;98485.22;5067060;28;20394;-80
2022/03/11 07:04:18;;;;;;;;;;;;;;;0.57;40.26;98485.00;5050922;28;20260;-80
2022/03/11 07:06:47;;;;;;;;;;;;;;;0.49;40.34;98494.22;5062638;28;19939;-79
2022/03/11 07:09:16;;;;;;;;;;;;;;;0.49;40.79;98496.88;5069950;28;19929;-80
2022/03/11 07:11:46;;;;;;;;;;;;;;;0.61;40.96;98493.41;5070220;28;19971;-79
2022/03/11 07:14:13;;;;;;;;;;;;;;;0.60;39.79;98489.09;5068811;28;19928;-80
2022/03/11 07:16:41;;;;;;;;;;;;;;;0.81;40.82;98483.16;5068181;28;19924;-81
2022/03/11 07:19:11;;;;;;;;;;;;;;;1.08;39.41;98490.69;5071611;28;19964;-80
2022/03/11 07:21:43;;;;;;;;;;;;;;;1.27;38.94;98484.91;5072141;28;20482;-81
2022/03/11 07:25:08;;;;;;;;;;;;;;;1.33;38.72;98491.19;5071074;28;20395;-80
2022/03/11 07:27:55;;;;;;;;;;;;;;;1.16;38.50;98491.13;5066752;28;20286;-80
2022/03/11 07:30:23;;;;;;;;;;;;;;;1.22;38.62;98500.88;5061122;28;19925;-81
2022/03/11 07:32:53;;;;;;;;;;;;;;;1.20;38.21;98499.50;5045826;28;19925;-80
2022/03/11 07:35:38;;;;;;;;;;;;;;;0.98;38.42;98493.94;5069139;28;19924;-81
2022/03/11 07:38:07;;;;;;;;;;;;;;;1.33;38.16;98496.53;5071845;28;19924;-80
2022/03/11 07:40:40;;;;;;;;;;;;;;;1.40;37.57;98497.25;5070661;28;19924;-79
2022/03/11 07:43:17;;;;;;;;;;;;;;;1.57;37.51;98495.41;5068311;28;20015;-81
2022/03/11 07:45:45;;;;;;;;;;;;;;;1.93;36.87;98495.28;5052404;28;19977;-81
2022/03/11 07:48:14;;;;;;;;;;;;;;;1.85;36.29;98493.78;5072310;28;19931;-82
2022/03/11 07:50:43;;;;;;;;;;;;;;;1.68;36.53;98492.94;5070092;28;19925;-79
2022/03/11 07:53:14;;;;;;;;;;;;;;;1.86;36.25;98500.75;5067306;28;19972;-80
2022/03/11 07:55:59;;;;;;;;;;;;;;;1.52;35.86;98491.84;5069682;28;19931;-80
2022/03/11 07:58:46;;;;;;;;;;;;;;;2.03;35.77;98488.22;5063393;28;19931;-81
2022/03/11 08:01:21;;;;;;;;;;;;;;;2.33;35.67;98490.59;5069017;28;19931;-82
2022/03/11 08:04:13;;;;;;;;;;;;;;;2.70;35.70;98484.72;5043593;28;19952;-84
2022/03/11 08:07:05;;;;;;;;;;;;;;;2.83;33.88;98488.94;5060690;28;19983;-83
2022/03/11 08:10:15;;;;;;;;;;;;;;;3.18;33.53;98485.91;5069207;28;19925;-83
2022/03/11 08:12:43;;;;;;;;;;;;;;;2.94;32.89;98477.28;5071261;28;19971;-81
2022/03/11 08:15:13;;;;;;;;;;;;;;;3.10;33.41;98481.81;5068705;28;19925;-82
2022/03/11 08:17:41;;;;;;;;;;;;;;;3.30;34.22;98467.00;5070807;28;20397;-83
2022/03/11 08:20:27;;;;;;;;;;;;;;;3.09;31.83;98477.50;5070612;28;19932;-79
2022/03/11 08:22:55;;;;;;;;;;;;;;;3.52;32.48;98475.06;5071355;28;20027;-80
2022/03/11 08:25:26;;;;;;;;;;;;;;;3.60;31.91;98478.09;5072003;28;19978;-83
2022/03/11 08:27:55;;;;;;;;;;;;;;;3.78;31.71;98478.81;5066069;28;20012;-83
2022/03/11 08:30:41;;;;;;;;;;;;;;;3.93;31.87;98471.72;5069127;28;19924;-80
2022/03/11 08:33:30;;;;;;;;;;;;;;;3.67;29.81;98473.34;5070645;28;19925;-80
2022/03/11 08:36:18;;;;;;;;;;;;;;;3.97;31.53;98476.59;5052384;28;19932;-82
2022/03/11 08:38:46;;;;;;;;;;;;;;;3.92;29.63;98475.47;5067647;28;19938;-83
2022/03/11 08:41:14;;;;;;;;;;;;;;;3.65;30.13;98469.28;5065211;28;19924;-81
2022/03/11 08:43:42;;;;;;;;;;;;;;;3.83;31.08;98471.59;5064865;28;19932;-81
2022/03/11 08:46:12;;;;;;;;;;;;;;;4.13;29.71;98476.47;5064519;28;19932;-84
2022/03/11 08:48:41;;;;;;;;;;;;;;;4.37;29.93;98476.94;5068705;28;19930;-81
2022/03/11 08:51:10;;;;;;;;;;;;;;;4.55;28.69;98478.41;5068718;28;19924;-81
2022/03/11 08:53:55;;;;;;;;;;;;;;;4.76;30.35;98473.19;5061974;28;19928;-81
2022/03/11 09:00:43;;;;;;;;;;;;;;;5.12;28.80;98466.94;5068165;28;20004;-80
2022/03/11 09:03:12;;;;;;;;;;;;;;;5.35;28.07;98465.69;5064994;28;19925;-83
2022/03/11 09:05:40;;;;;;;;;;;;;;;5.23;27.23;98463.22;5065386;28;19963;-81
2022/03/11 09:08:08;;;;;;;;;;;;;;;5.31;27.51;98474.53;5068948;28;19963;-83
2022/03/11 09:10:36;;;;;;;;;;;;;;;4.64;27.34;98471.50;5068447;28;19971;-81
2022/03/11 09:13:04;;;;;;;;;;;;;;;4.61;27.33;98458.53;5072120;28;20397;-80
2022/03/11 09:15:32;;;;;;;;;;;;;;;4.97;28.42;98445.31;5072028;28;19925;-83
2022/03/11 09:18:00;;;;;;;;;;;;;;;5.41;27.61;98445.75;5073342;28;19974;-82
2022/03/11 09:20:29;;;;;;;;;;;;;;;5.67;27.68;98451.22;5057245;28;19935;-82
2022/03/11 09:23:02;;;;;;;;;;;;;;;5.46;27.02;98434.19;5070629;28;20023;-81
2022/03/11 09:25:30;;;;;;;;;;;;;;;5.73;27.02;98445.56;5071187;28;19924;-80
2022/03/11 09:28:04;;;;;;;;;;;;;;;5.96;26.56;98438.09;5056021;28;20049;-82
2022/03/11 09:30:32;;;;;;;;;;;;;;;6.26;25.76;98427.31;5074209;28;20342;-81
2022/03/11 09:33:01;;;;;;;;;;;;;;;5.40;26.09;98424.47;5054805;28;19974;-80
2022/03/11 09:35:31;;;;;;;;;;;;;;;5.66;26.37;98436.94;5068595;28;19978;-80
2022/03/11 09:37:59;;;;;;;;;;;;;;;5.97;26.26;98435.13;5070498;28;19924;-81
2022/03/11 09:40:28;;;;;;;;;;;;;;;6.39;26.37;98441.31;5073016;28;19925;-81
2022/03/11 09:43:20;;;;;;;;;;;;;;;6.60;25.48;98437.53;5062577;28;20007;-82
2022/03/11 09:45:49;;;;;;;;;;;;;;;6.42;25.60;98432.69;5061437;28;19933;-86
2022/03/11 09:48:17;;;;;;;;;;;;;;;6.65;25.61;98425.91;5070006;28;19932;-84
2022/03/11 09:50:46;;;;;;;;;;;;;;;6.93;26.15;98421.81;5068028;28;19925;-85
2022/03/11 09:53:15;;;;;;;;;;;;;;;7.07;25.32;98423.63;5054582;28;19925;-85
2022/03/11 09:55:43;;;;;;;;;;;;;;;7.15;25.25;98413.38;5073166;28;19924;-85
2022/03/11 09:58:11;;;;;;;;;;;;;;;7.44;25.37;98418.91;5053048;28;20354;-84
2022/03/11 10:00:40;;;;;;;;;;;;;;;7.58;23.98;98418.00;5051052;28;19932;-84
2022/03/11 10:03:08;;;;;;;;;;;;;;;7.64;24.36;98421.50;5068080;28;20385;-81
2022/03/11 10:05:48;;;;;;;;;;;;;;;7.04;23.72;98415.28;5063333;28;19936;-83
2022/03/11 10:08:30;;;;;;;;;;;;;;;7.34;24.26;98425.16;5069604;28;19928;-85
2022/03/11 10:11:09;;;;;;;;;;;;;;;7.04;23.37;98416.09;5051186;28;20374;-84
2022/03/11 10:13:37;;;;;;;;;;;;;;;7.10;23.69;98411.50;5070178;28;19940;-82
2022/03/11 10:16:16;;;;;;;;;;;;;;;6.74;23.35;98408.09;5051000;28;19933;-85
2022/03/11 10:18:46;;;;;;;;;;;;;;;6.96;23.39;98407.75;5066763;28;20286;-83
2022/03/11 10:21:16;;;;;;;;;;;;;;;6.95;23.34;98406.94;5066182;28;19932;-84
2022/03/11 10:23:50;;;;;;;;;;;;;;;6.99;23.38;98396.41;5068313;28;20007;-82
2022/03/11 10:26:30;;;;;;;;;;;;;;;6.80;23.51;98399.69;5068082;28;20097;-81
2022/03/11 10:28:58;;;;;;;;;;;;;;;7.25;22.76;98392.50;5068693;28;20347;-83
2022/03/11 10:34:23;;;;;;;;;;;;;;;7.50;22.67;98391.53;5063723;28;20272;-82
2022/03/11 10:36:54;;;;;;;;;;;;;;;7.63;22.46;98395.53;5070491;28;19924;-84
2022/03/11 10:39:25;;;;;;;;;;;;;;;7.80;22.23;98390.56;5075264;28;19928;-84
2022/03/11 10:41:57;;;;;;;;;;;;;;;8.20;22.43;98404.84;5066173;28;19950;-83
2022/03/11 10:44:26;;;;;;;;;;;;;;;8.16;21.38;98398.41;5070594;28;19975;-85
2022/03/11 10:46:55;;;;;;;;;;;;;;;8.32;23.15;98389.06;5069169;28;19956;-83
2022/03/11 10:49:27;;;;;;;;;;;;;;;8.59;21.46;98402.09;5069365;28;19939;-84
2022/03/11 10:52:02;;;;;;;;;;;;;;;8.40;21.51;98399.28;5072415;28;19931;-85
2022/03/11 10:54:31;;;;;;;;;;;;;;;7.93;22.05;98388.28;5066277;28;20015;-82
2022/03/11 10:57:09;;;;;;;;;;;;;;;8.37;22.54;98402.59;5071403;28;19933;-81
2022/03/11 10:59:37;;;;;;;;;;;;;;;8.50;21.96;98390.28;5068736;28;19995;-85
2022/03/11 11:02:05;;;;;;;;;;;;;;;8.82;23.86;98388.84;5051275;28;19925;-86
2022/03/11 11:04:52;;;;;;;;;;;;;;;8.87;20.63;98389.59;5071036;28;19931;-84
2022/03/11 11:10:21;;;;;;;;;;;;;;;8.87;20.57;98381.47;5070154;28;19954;-84
2022/03/11 11:12:49;;;;;;;;;;;;;;;9.06;20.22;98383.44;5069592;28;19975;-83
2022/03/11 11:15:18;;;;;;;;;;;;;;;8.79;19.85;98368.59;5069819;28;20030;-85
2022/03/11 11:17:47;;;;;;;;;;;;;;;8.78;21.22;98375.06;5070163;28;20449;-86
2022/03/11 11:20:17;;;;;;;;;;;;;;;8.85;19.83;98362.00;5053601;28;19929;-85
2022/03/11 11:22:49;;;;;;;;;;;;;;;9.06;21.32;98357.16;5070037;28;21470;-83
2022/03/11 11:25:17;;;;;;;;;;;;;;;9.35;20.50;98356.22;5070867;28;19925;-85
2022/03/11 11:27:45;;;;;;;;;;;;;;;9.64;20.65;98356.91;5070933;28;19924;-83
2022/03/11 11:30:18;;;;;;;;;;;;;;;9.72;20.68;98352.69;5070347;28;20005;-84
2022/03/11 11:32:46;;;;;;;;;;;;;;;9.95;20.70;98345.56;5064227;28;19995;-83
2022/03/11 11:35:23;;;;;;;;;;;;;;;9.55;20.31;98342.38;5055823;28;19995;-85
2022/03/11 11:37:53;;;;;;;;;;;;;;;9.55;20.94;98347.81;5070326;28;19928;-82
2022/03/11 11:40:27;;;;;;;;;;;;;;;9.81;21.84;98342.81;5069090;28;19992;-84
2022/03/11 11:43:26;;;;;;;;;;;;;;;9.83;20.62;98337.06;5066792;28;19931;-84
2022/03/11 11:45:59;;;;;;;;;;;;;;;9.92;22.68;98330.69;5052566;28;19967;-84
2022/03/11 11:48:54;;;;;;;;;;;;;;;9.77;20.10;98333.63;5068559;28;20357;-85
2022/03/11 11:51:54;;;;;;;;;;;;;;;9.16;20.84;98321.78;5068533;28;20432;-84
2022/03/11 11:54:36;;;;;;;;;;;;;;;9.06;21.05;98318.41;5068505;28;20437;-85
2022/03/11 11:57:05;;;;;;;;;;;;;;;9.12;22.01;98319.94;5070195;28;19935;-84
2022/03/11 11:59:36;;;;;;;;;;;;;;;9.18;20.86;98310.63;5065919;28;19925;-86
2022/03/11 12:02:23;;;;;;;;;;;;;;;9.08;21.45;98310.78;5070262;28;20058;-85
2022/03/11 12:04:51;;;;;;;;;;;;;;;9.40;20.62;98308.16;5051856;28;20287;-83
2022/03/11 12:07:22;;;;;;;;;;;;;;;9.32;20.66;98297.16;5068681;28;20015;-84
2022/03/11 12:10:25;;;;;;;;;;;;;;;9.79;23.07;98293.44;5066980;28;19925;-84
2022/03/11 12:12:59;;;;;;;;;;;;;;;10.07;20.83;98288.09;5066158;28;19932;-84
2022/03/11 12:15:28;;;;;;;;;;;;;;;9.93;21.03;98290.78;5068967;28;20002;-84
2022/03/11 12:18:00;;;;;;;;;;;;;;;9.93;20.77;98291.56;5070828;28;19925;-84
2022/03/11 12:20:36;;;;;;;;;;;;;;;9.75;20.56;98286.19;5065756;28;19968;-85
2022/03/11 12:23:05;;;;;;;;;;;;;;;9.28;20.96;98277.16;5068380;28;19931;-82
2022/03/11 12:25:35;;;;;;;;;;;;;;;9.39;21.68;98282.13;5064565;28;20274;-81
2022/03/11 12:28:08;;;;;;;;;;;;;;;9.84;22.05;98281.69;5069726;28;19999;-80
2022/03/11 12:30:37;;;;;;;;;;;;;;;9.84;21.51;98270.84;5071468;28;19968;-81
2022/03/11 12:33:07;;;;;;;;;;;;;;;9.96;21.73;98274.72;5067720;28;19932;-87
2022/03/11 12:35:35;;;;;;;;;;;;;;;10.20;22.03;98279.16;5065297;28;19929;-85
2022/03/11 12:38:03;;;;;;;;;;;;;;;10.13;20.63;98270.63;5071370;28;20335;-86
2022/03/11 12:41:06;;;;;;;;;;;;;;;;;;;;;
2022/03/11 12:43:59;;;;;;;;;;;;;;;10.49;20.22;98263.44;5066227;28;19943;-83
2022/03/11 12:46:51;;;;;;;;;;;;;;;10.40;20.41;98259.81;5059586;28;19925;-82
2022/03/11 12:49:26;;;;;;;;;;;;;;;10.31;20.88;98261.59;5071502;28;19924;-82
2022/03/11 12:51:54;;;;;;;;;;;;;;;10.02;20.76;98248.28;5053384;28;20275;-76
2022/03/11 12:54:27;;;;;;;;;;;;;;;10.11;20.70;98254.59;5053894;28;19928;-83
2022/03/11 12:56:55;;;;;;;;;;;;;;;10.28;21.05;98247.81;5071995;28;19932;-81
2022/03/11 12:59:24;;;;;;;;;;;;;;;10.60;21.28;98252.34;5068515;28;20305;-83
2022/03/11 13:02:02;;;;;;;;;;;;;;;10.86;21.39;98252.63;5072348;28;20004;-81
2022/03/11 13:04:55;;;;;;;;;;;;;;;10.73;20.16;98256.97;5070659;28;19924;-81
2022/03/11 13:08:08;;;;;;;;;;;;;;;10.70;20.34;98241.25;5066345;28;20019;-83
2022/03/11 13:10:41;;;;;;;;;;;;;;;10.74;20.93;98237.63;5071440;28;19970;-83
2022/03/11 13:13:12;;;;;;;;;;;;;;;10.72;19.61;98234.44;5052326;28;19933;-82
2022/03/11 13:15:43;;;;;;;;;;;;;;;10.79;20.66;98238.66;5071184;28;20010;-82
2022/03/11 13:18:19;;;;;;;;;;;;;;;10.60;20.36;98225.16;5071207;28;19987;-83
2022/03/11 13:20:47;;;;;;;;;;;;;;;10.47;19.67;98219.47;5067077;28;19947;-86
2022/03/11 13:23:16;;;;;;;;;;;;;;;10.54;20.19;98215.53;5071550;28;19928;-87
2022/03/11 13:25:46;;;;;;;;;;;;;;;10.55;20.08;98215.25;5067482;28;21222;-87
2022/03/11 13:28:22;;;;;;;;;;;;;;;10.80;21.19;98216.59;5066006;28;20654;-82
2022/03/11 13:30:52;;;;;;;;;;;;;;;10.96;22.32;98211.63;5070538;28;19936;-82
2022/03/11 13:33:21;;;;;;;;;;;;;;;10.97;20.59;98215.94;5071409;28;19924;-86
2022/03/11 13:35:49;;;;;;;;;;;;;;;10.72;21.74;98209.97;5069516;28;20383;-86
2022/03/11 13:38:33;;;;;;;;;;;;;;;10.55;20.12;98215.25;5065773;28;19971;-83
2022/03/11 13:41:01;;;;;;;;;;;;;;;10.46;20.34;98215.13;5063325;28;19925;-83
2022/03/11 13:43:29;;;;;;;;;;;;;;;10.33;19.98;98209.69;5068563;28;20019;-84
2022/03/11 13:45:59;;;;;;;;;;;;;;;10.55;20.65;98211.72;5054420;28;20419;-84
2022/03/11 13:48:30;;;;;;;;;;;;;;;10.59;20.81;98210.78;5069380;28;20019;-82
2022/03/11 13:51:08;;;;;;;;;;;;;;;10.82;20.36;98211.69;5072909;28;19932;-83
2022/03/11 13:53:36;;;;;;;;;;;;;;;10.88;20.57;98201.50;5073653;28;19931;-84
2022/03/11 13:56:17;;;;;;;;;;;;;;;10.60;19.50;98211.59;5073668;28;19928;-83
2022/03/11 13:58:45;;;;;;;;;;;;;;;10.73;20.39;98199.91;5067369;28;20345;-85
2022/03/11 14:01:14;;;;;;;;;;;;;;;10.98;19.98;98198.53;5067353;28;19929;-83
2022/03/11 14:03:43;;;;;;;;;;;;;;;11.03;20.05;98195.72;5069946;28;20343;-84
2022/03/11 14:06:29;;;;;;;;;;;;;;;10.69;19.87;98197.00;5071603;28;20011;-84
2022/03/11 14:09:03;;;;;;;;;;;;;;;10.97;20.56;98195.03;5058709;28;19952;-82
2022/03/11 14:11:32;;;;;;;;;;;;;;;10.98;20.45;98188.47;5072154;28;19932;-82
2022/03/11 14:13:59;;;;;;;;;;;;;;;11.19;20.55;98188.00;5070690;28;20401;-81
2022/03/11 14:16:30;;;;;;;;;;;;;;;11.24;20.99;98187.88;5050002;28;19928;-83
2022/03/11 14:18:59;;;;;;;;;;;;;;;11.04;20.55;98188.34;5068452;28;20110;-83
2022/03/11 14:21:27;;;;;;;;;;;;;;;10.77;20.31;98181.88;5073028;28;19947;-83
2022/03/11 14:23:54;;;;;;;;;;;;;;;10.98;20.30;98180.31;5070163;28;19990;-82
2022/03/11 14:26:28;;;;;;;;;;;;;;;10.93;20.17;98177.72;5051680;28;20291;-82
2022/03/11 14:28:56;;;;;;;;;;;;;;;10.81;21.66;98172.00;5072293;28;20370;-84
2022/03/11 14:31:28;;;;;;;;;;;;;;;10.83;20.00;98172.50;5071762;28;19924;-86
2022/03/11 14:34:23;;;;;;;;;;;;;;;10.94;20.61;98178.53;5072098;28;19936;-83
2022/03/11 14:36:52;;;;;;;;;;;;;;;10.88;20.25;98172.41;5067861;28;19925;-82
2022/03/11 14:39:20;;;;;;;;;;;;;;;10.81;20.59;98172.00;5068881;28;19931;-83
2022/03/11 14:41:48;;;;;;;;;;;;;;;10.57;20.59;98172.25;5061835;28;19932;-84
2022/03/11 14:44:16;;;;;;;;;;;;;;;10.71;20.72;98164.91;5071829;28;19925;-82
2022/03/11 14:46:47;;;;;;;;;;;;;;;10.79;20.98;98171.50;5070055;28;19932;-82
2022/03/11 14:49:17;;;;;;;;;;;;;;;10.74;21.59;98161.56;5039322;28;19986;-83
2022/03/11 14:51:47;;;;;;;;;;;;;;;10.86;21.65;98158.28;5068387;28;20368;-82
2022/03/11 14:54:18;;;;;;;;;;;;;;;10.77;22.26;98168.31;5048518;28;19928;-84
2022/03/11 14:56:50;;;;;;;;;;;;;;;10.79;21.53;98168.78;5074086;28;20019;-84
2022/03/11 14:59:21;;;;;;;;;;;;;;;10.65;21.91;98146.28;5053615;28;19924;-85
2022/03/11 15:01:49;;;;;;;;;;;;;;;10.66;22.50;98154.13;5070824;28;19998;-84
2022/03/11 15:04:17;;;;;;;;;;;;;;;10.70;22.45;98154.31;5055203;28;19925;-82
2022/03/11 15:06:47;;;;;;;;;;;;;;;10.77;23.02;98152.00;5069922;28;19924;-84
2022/03/11 15:09:18;;;;;;;;;;;;;;;10.87;23.63;98157.19;5052007;28;20417;-84
2022/03/11 15:11:48;;;;;;;;;;;;;;;10.65;22.69;98162.56;5071830;28;19932;-84
2022/03/11 15:14:17;;;;;;;;;;;;;;;10.32;24.60;98151.88;5066089;28;19979;-84
2022/03/11 15:16:46;;;;;;;;;;;;;;;10.52;24.53;98155.28;5067113;28;19925;-84
2022/03/11 15:19:15;;;;;;;;;;;;;;;10.49;24.34;98152.06;5072184;28;19980;-85
2022/03/11 15:21:43;;;;;;;;;;;;;;;10.52;23.98;98147.91;5066832;28;19928;-85
2022/03/11 15:24:15;;;;;;;;;;;;;;;10.39;24.30;98149.56;5050934;28;19952;-85
2022/03/11 15:26:46;;;;;;;;;;;;;;;10.44;24.28;98146.75;5047459;28;19959;-84
2022/03/11 15:29:14;;;;;;;;;;;;;;;10.44;24.70;98143.22;5066799;28;19960;-82
2022/03/11 15:31:44;;;;;;;;;;;;;;;10.46;25.37;98149.94;5066494;28;19924;-85
2022/03/11 15:34:12;;;;;;;;;;;;;;;10.28;24.30;98147.34;5066563;28;19989;-85
2022/03/11 15:36:40;;;;;;;;;;;;;;;10.45;24.34;98148.34;5062043;28;19968;-85
2022/03/11 15:39:08;;;;;;;;;;;;;;;10.25;24.49;98151.47;5070489;28;19925;-85
2022/03/11 15:41:38;;;;;;;;;;;;;;;10.28;24.26;98150.88;5046038;28;20328;-84
2022/03/11 15:44:06;;;;;;;;;;;;;;;10.18;24.84;98145.63;5068536;28;20468;-85
2022/03/11 15:46:36;;;;;;;;;;;;;;;10.26;25.33;98153.09;5049931;28;20019;-76
2022/03/11 15:49:06;;;;;;;;;;;;;;;10.32;24.57;98138.28;5051463;28;19939;-76
2022/03/11 15:51:34;;;;;;;;;;;;;;;10.22;25.17;98135.75;5072371;28;19935;-80
2022/03/11 15:54:02;;;;;;;;;;;;;;;10.26;25.26;98134.06;5065231;28;19924;-82
2022/03/11 15:56:33;;;;;;;;;;;;;;;10.16;24.76;98134.25;5027724;28;19924;-79
2022/03/11 15:59:04;;;;;;;;;;;;;;;10.06;24.65;98140.69;5065366;28;19924;-85
2022/03/11 16:01:34;;;;;;;;;;;;;;;9.74;25.28;98132.63;5064668;28;20010;-77
2022/03/11 16:04:03;;;;;;;;;;;;;;;9.76;25.24;98139.38;5048722;28;19929;-87
2022/03/11 16:09:24;;;;;;;;;;;;;;;9.77;25.59;98141.00;5069602;28;20019;-85
2022/03/11 16:11:55;;;;;;;;;;;;;;;9.79;25.92;98141.47;5032041;28;20381;-84
2022/03/11 16:14:24;;;;;;;;;;;;;;;9.64;25.90;98136.34;5033436;28;20035;-87
2022/03/11 16:17:30;;;;;;;;;;;;;;;9.81;25.90;98136.56;5051043;28;19928;-87
2022/03/11 16:19:59;;;;;;;;;;;;;;;9.77;25.96;98143.69;5067213;28;20276;-86
2022/03/11 16:22:27;;;;;;;;;;;;;;;9.74;26.23;98133.44;5054965;28;19925;-86
2022/03/11 16:24:55;;;;;;;;;;;;;;;9.64;25.55;98148.03;5075234;28;20022;-85
2022/03/11 16:27:39;;;;;;;;;;;;;;;9.76;25.31;98144.81;5065336;28;20028;-86
2022/03/11 16:30:20;;;;;;;;;;;;;;;9.74;26.15;98138.88;5059789;28;19924;-86
2022/03/11 16:32:50;;;;;;;;;;;;;;;9.61;26.40;98148.59;5074095;28;20475;-82
2022/03/11 16:35:18;;;;;;;;;;;;;;;9.49;25.78;98144.78;5046078;28;19944;-80
2022/03/11 16:37:46;;;;;;;;;;;;;;;9.35;25.79;98140.09;5076206;28;20455;-85
2022/03/11 16:40:14;;;;;;;;;;;;;;;9.13;26.78;98140.75;5038404;28;19960;-83
2022/03/11 16:42:48;;;;;;;;;;;;;;;9.15;26.64;98137.72;5069229;28;19937;-83
2022/03/11 16:45:16;;;;;;;;;;;;;;;9.12;26.45;98150.00;5041146;28;20294;-80
2022/03/11 16:47:46;;;;;;;;;;;;;;;9.08;26.36;98142.75;5042215;28;20339;-84
2022/03/11 16:50:40;;;;;;;;;;;;;;;8.93;26.61;98152.72;5072323;28;19924;-84
2022/03/11 16:53:10;;;;;;;;;;;;;;;8.88;26.75;98143.84;5070335;28;19991;-88
2022/03/11 16:55:42;;;;;;;;;;;;;;;8.77;26.78;98156.75;5037842;28;19924;-85
2022/03/11 16:58:14;;;;;;;;;;;;;;;8.71;26.39;98155.22;5069435;28;19936;-84
2022/03/11 17:00:47;;;;;;;;;;;;;;;8.49;27.35;98146.88;5072869;28;19941;-83
2022/03/11 17:03:17;;;;;;;;;;;;;;;8.48;27.25;98153.38;5051610;28;20426;-79
2022/03/11 17:05:45;;;;;;;;;;;;;;;8.46;27.90;98159.06;5057687;28;19931;-85
2022/03/11 17:08:13;;;;;;;;;;;;;;;8.32;27.63;98158.16;5052893;28;19959;-85
2022/03/11 17:10:42;;;;;;;;;;;;;;;8.39;27.22;98162.13;5080724;28;20283;-90
2022/03/11 17:13:10;;;;;;;;;;;;;;;8.36;26.73;98162.75;5073299;28;19925;-88
2022/03/11 17:15:38;;;;;;;;;;;;;;;8.23;27.62;98157.97;5071107;28;20497;-91
2022/03/11 17:18:06;;;;;;;;;;;;;;;8.28;27.11;98157.94;5047402;28;20030;-90
2022/03/11 17:20:36;;;;;;;;;;;;;;;8.28;27.17;98166.03;5057110;28;19928;-86
2022/03/11 17:23:04;;;;;;;;;;;;;;;8.15;27.06;98158.66;5073060;28;19940;-91
2022/03/11 17:25:33;;;;;;;;;;;;;;;8.17;27.56;98161.06;5046561;28;19974;-90
2022/03/11 17:28:02;;;;;;;;;;;;;;;8.00;27.81;98169.63;5075441;28;19925;-86
2022/03/11 17:30:30;;;;;;;;;;;;;;;7.98;27.50;98166.41;5072533;28;19947;-90
2022/03/11 17:32:58;;;;;;;;;;;;;;;8.01;27.86;98168.53;5033697;28;19928;-86
2022/03/11 17:35:26;;;;;;;;;;;;;;;7.92;28.21;98170.25;5070286;28;19932;-83
2022/03/11 17:37:55;;;;;;;;;;;;;;;8.02;27.97;98162.03;5070400;28;19924;-83
2022/03/11 17:40:23;;;;;;;;;;;;;;;7.98;28.29;98172.63;5070667;28;19947;-81
2022/03/11 17:43:18;;;;;;;;;;;;;;;7.96;27.72;98182.13;5069069;28;19932;-84
2022/03/11 17:45:46;;;;;;;;;;;;;;;8.02;27.28;98175.56;5069658;28;19931;-81
2022/03/11 17:48:15;;;;;;;;;;;;;;;7.86;27.84;98183.03;5074100;28;19934;-81
2022/03/11 17:50:43;;;;;;;;;;;;;;;7.83;28.10;98181.72;5064408;28;20310;-87
2022/03/11 17:53:16;;;;;;;;;;;;;;;7.73;27.51;98176.41;5077848;28;19940;-77
2022/03/11 17:55:45;;;;;;;;;;;;;;;7.53;27.94;98179.31;5069625;28;19932;-76
2022/03/11 17:58:13;;;;;;;;;;;;;;;7.75;28.34;98182.34;5065401;28;19925;-76
2022/03/11 18:00:42;;;;;;;;;;;;;;;7.72;28.30;98177.47;5068582;28;20034;-78
2022/03/11 18:03:10;;;;;;;;;;;;;;;7.64;27.58;98180.81;5071242;28;20398;-80
2022/03/11 18:05:38;;;;;;;;;;;;;;;7.47;26.99;98186.66;5068432;28;19949;-86
2022/03/11 18:08:06;;;;;;;;;;;;;;;7.36;27.03;98193.25;5066092;28;19957;-85
2022/03/11 18:10:36;;;;;;;;;;;;;;;7.28;26.07;98204.66;5067877;28;19955;-85
2022/03/11 18:13:04;;;;;;;;;;;;;;;7.17;26.24;98195.81;5067446;28;19924;-82
2022/03/11 18:15:32;;;;;;;;;;;;;;;7.16;27.05;98196.91;5069475;28;19953;-83
2022/03/11 18:18:01;;;;;;;;;;;;;;;6.86;26.18;98192.53;5068184;28;19978;-80
2022/03/11 18:20:29;;;;;;;;;;;;;;;6.82;26.09;98191.50;5061722;28;20315;-87
2022/03/11 18:22:57;;;;;;;;;;;;;;;6.75;26.28;98193.66;5058825;28;20343;-81
2022/03/11 18:25:25;;;;;;;;;;;;;;;6.74;26.16;98195.56;5064316;28;20387;-80
2022/03/11 18:27:54;;;;;;;;;;;;;;;6.64;27.18;98195.63;5062573;28;19943;-82
2022/03/11 18:30:22;;;;;;;;;;;;;;;6.73;26.89;98196.66;5060151;28;19987;-82
2022/03/11 18:32:50;;;;;;;;;;;;;;;6.72;26.01;98196.94;5070442;28;19924;-82
2022/03/11 18:35:19;;;;;;;;;;;;;;;6.47;26.58;98203.28;5066611;28;19971;-82
2022/03/11 18:37:47;;;;;;;;;;;;;;;6.48;27.75;98204.88;5069237;28;19935;-81
2022/03/11 18:40:16;;;;;;;;;;;;;;;6.36;26.47;98202.53;5067040;28;20014;-83
2022/03/11 18:42:47;;;;;;;;;;;;;;;6.29;26.54;98193.91;5067050;28;19924;-81
2022/03/11 18:45:16;;;;;;;;;;;;;;;6.20;26.76;98200.97;5063209;28;19925;-82
2022/03/11 18:47:45;;;;;;;;;;;;;;;6.16;26.65;98195.31;5065759;28;20015;-82
2022/03/11 18:53:07;;;;;;;;;;;;;;;6.09;26.91;98205.59;5031779;28;20011;-85
2022/03/11 18:55:36;;;;;;;;;;;;;;;6.13;26.63;98203.97;5067095;28;20042;-82
2022/03/11 18:58:04;;;;;;;;;;;;;;;5.88;26.60;98201.31;5067990;28;19925;-86
2022/03/11 19:00:34;;;;;;;;;;;;;;;5.65;26.79;98192.72;5064301;28;19931;-84
2022/03/11 19:03:02;;;;;;;;;;;;;;;5.63;26.97;98191.38;5066615;28;20449;-84